ESME weather

Eslöv Airport
Eslöv, Skåne län, Sweden

Public forecast

Using degrees Celsius for public forecast. Weather courtesy of forecast.io.

METAR (pilot weather report)

Closest report is Ljungbyhed Airport, 14.6 nm (27.1 km) NNW. Retrieved 2019/07/18 15:20 UTC (0 seconds ago):

ESTL 181520Z AUTO 22008KT 170V250 9999 ///////// 24/09 Q1012

TAF (pilot weather forecast)

Forecast is more than 12 hours old.

Closest forecast is Ljungbyhed Airport, 14.6 nm (27.1 km) NNW. Retrieved 2016/03/01 09:33 UTC (3 years ago):

TAF ESTL 010830Z 0109/0124 14004KT 9999 SCT025